sensor_id;sensor_type;location;lat;lon;timestamp;P1;durP1;ratioP1;P2;durP2;ratioP2
39880;SDS011;25554;44.954;10.068;2022-10-17T00:00:36;43.78;;;25.90;;
39880;SDS011;25554;44.954;10.068;2022-10-17T00:05:28;41.00;;;26.20;;
39880;SDS011;25554;44.954;10.068;2022-10-17T00:07:55;41.50;;;26.90;;
39880;SDS011;25554;44.954;10.068;2022-10-17T00:12:49;44.15;;;26.58;;
39880;SDS011;25554;44.954;10.068;2022-10-17T00:15:17;41.35;;;26.95;;
39880;SDS011;25554;44.954;10.068;2022-10-17T00:17:44;45.28;;;28.02;;
39880;SDS011;25554;44.954;10.068;2022-10-17T00:22:37;41.33;;;25.27;;
39880;SDS011;25554;44.954;10.068;2022-10-17T00:27:33;39.72;;;26.63;;
39880;SDS011;25554;44.954;10.068;2022-10-17T00:30:01;50.55;;;27.98;;
39880;SDS011;25554;44.954;10.068;2022-10-17T00:32:27;48.50;;;28.20;;
39880;SDS011;25554;44.954;10.068;2022-10-17T00:37:20;43.42;;;27.10;;
39880;SDS011;25554;44.954;10.068;2022-10-17T00:42:13;42.95;;;25.77;;
39880;SDS011;25554;44.954;10.068;2022-10-17T00:47:09;40.47;;;26.40;;
39880;SDS011;25554;44.954;10.068;2022-10-17T00:49:38;43.45;;;27.30;;
39880;SDS011;25554;44.954;10.068;2022-10-17T00:52:07;43.78;;;26.75;;
39880;SDS011;25554;44.954;10.068;2022-10-17T00:54:59;41.03;;;24.92;;
39880;SDS011;25554;44.954;10.068;2022-10-17T00:57:32;47.38;;;28.92;;
39880;SDS011;25554;44.954;10.068;2022-10-17T00:59:59;45.83;;;28.92;;
39880;SDS011;25554;44.954;10.068;2022-10-17T01:02:31;43.47;;;26.83;;
39880;SDS011;25554;44.954;10.068;2022-10-17T01:07:24;44.88;;;27.98;;
39880;SDS011;25554;44.954;10.068;2022-10-17T01:09:52;46.38;;;29.40;;
39880;SDS011;25554;44.954;10.068;2022-10-17T01:15:11;43.40;;;26.33;;
39880;SDS011;25554;44.954;10.068;2022-10-17T01:17:51;45.28;;;28.85;;
39880;SDS011;25554;44.954;10.068;2022-10-17T01:23:37;45.85;;;30.33;;
39880;SDS011;25554;44.954;10.068;2022-10-17T01:32:08;42.03;;;27.83;;
39880;SDS011;25554;44.954;10.068;2022-10-17T01:37:26;41.45;;;26.13;;
39880;SDS011;25554;44.954;10.068;2022-10-17T01:40:10;51.58;;;27.98;;
39880;SDS011;25554;44.954;10.068;2022-10-17T01:43:04;50.42;;;28.17;;
39880;SDS011;25554;44.954;10.068;2022-10-17T01:45:54;50.97;;;29.58;;
39880;SDS011;25554;44.954;10.068;2022-10-17T01:48:30;43.00;;;27.75;;
39880;SDS011;25554;44.954;10.068;2022-10-17T01:51:06;42.13;;;27.75;;
39880;SDS011;25554;44.954;10.068;2022-10-17T01:53:42;45.33;;;28.20;;
39880;SDS011;25554;44.954;10.068;2022-10-17T01:56:14;42.95;;;28.75;;
39880;SDS011;25554;44.954;10.068;2022-10-17T01:58:51;45.78;;;29.20;;
39880;SDS011;25554;44.954;10.068;2022-10-17T02:01:22;51.17;;;30.25;;
39880;SDS011;25554;44.954;10.068;2022-10-17T02:03:50;57.50;;;35.72;;
39880;SDS011;25554;44.954;10.068;2022-10-17T02:06:20;56.30;;;33.53;;
39880;SDS011;25554;44.954;10.068;2022-10-17T02:16:42;47.03;;;29.30;;
39880;SDS011;25554;44.954;10.068;2022-10-17T02:19:44;58.20;;;31.20;;
39880;SDS011;25554;44.954;10.068;2022-10-17T02:25:26;51.70;;;28.10;;
39880;SDS011;25554;44.954;10.068;2022-10-17T02:33:48;53.30;;;33.33;;
39880;SDS011;25554;44.954;10.068;2022-10-17T02:36:28;57.80;;;34.40;;
39880;SDS011;25554;44.954;10.068;2022-10-17T02:38:59;52.17;;;32.70;;
39880;SDS011;25554;44.954;10.068;2022-10-17T02:41:27;57.10;;;34.58;;
39880;SDS011;25554;44.954;10.068;2022-10-17T02:43:56;59.95;;;36.15;;
39880;SDS011;25554;44.954;10.068;2022-10-17T02:46:24;61.53;;;35.33;;
39880;SDS011;25554;44.954;10.068;2022-10-17T02:48:54;57.78;;;34.75;;
39880;SDS011;25554;44.954;10.068;2022-10-17T02:53:54;66.70;;;37.30;;
39880;SDS011;25554;44.954;10.068;2022-10-17T02:56:21;58.63;;;36.42;;
39880;SDS011;25554;44.954;10.068;2022-10-17T02:58:53;62.97;;;39.33;;
39880;SDS011;25554;44.954;10.068;2022-10-17T03:01:23;62.58;;;37.15;;
39880;SDS011;25554;44.954;10.068;2022-10-17T03:03:50;64.03;;;38.38;;
39880;SDS011;25554;44.954;10.068;2022-10-17T03:06:16;62.33;;;36.38;;
39880;SDS011;25554;44.954;10.068;2022-10-17T03:08:44;67.40;;;37.63;;
39880;SDS011;25554;44.954;10.068;2022-10-17T03:13:38;64.03;;;38.23;;
39880;SDS011;25554;44.954;10.068;2022-10-17T03:18:31;61.53;;;36.75;;
39880;SDS011;25554;44.954;10.068;2022-10-17T03:20:59;83.40;;;40.13;;
39880;SDS011;25554;44.954;10.068;2022-10-17T03:23:27;74.75;;;37.55;;
39880;SDS011;25554;44.954;10.068;2022-10-17T03:25:54;69.32;;;38.38;;
39880;SDS011;25554;44.954;10.068;2022-10-17T03:28:21;59.47;;;35.22;;
39880;SDS011;25554;44.954;10.068;2022-10-17T03:30:48;81.22;;;41.67;;
39880;SDS011;25554;44.954;10.068;2022-10-17T03:33:14;85.30;;;43.33;;
39880;SDS011;25554;44.954;10.068;2022-10-17T03:35:41;82.30;;;44.47;;
39880;SDS011;25554;44.954;10.068;2022-10-17T03:38:08;90.60;;;45.63;;
39880;SDS011;25554;44.954;10.068;2022-10-17T03:40:35;81.88;;;43.40;;
39880;SDS011;25554;44.954;10.068;2022-10-17T03:43:02;88.38;;;46.20;;
39880;SDS011;25554;44.954;10.068;2022-10-17T03:47:57;109.15;;;48.00;;
39880;SDS011;25554;44.954;10.068;2022-10-17T03:50:24;130.20;;;52.85;;
39880;SDS011;25554;44.954;10.068;2022-10-17T03:52:51;120.45;;;52.95;;
39880;SDS011;25554;44.954;10.068;2022-10-17T03:55:18;111.45;;;48.85;;
39880;SDS011;25554;44.954;10.068;2022-10-17T04:00:11;109.53;;;48.60;;
39880;SDS011;25554;44.954;10.068;2022-10-17T04:02:41;131.00;;;52.38;;
39880;SDS011;25554;44.954;10.068;2022-10-17T04:05:15;221.27;;;55.42;;
39880;SDS011;25554;44.954;10.068;2022-10-17T04:07:42;207.43;;;56.15;;
39880;SDS011;25554;44.954;10.068;2022-10-17T04:10:10;157.82;;;58.17;;
39880;SDS011;25554;44.954;10.068;2022-10-17T04:12:37;147.05;;;58.35;;
39880;SDS011;25554;44.954;10.068;2022-10-17T04:15:04;184.48;;;61.55;;
39880;SDS011;25554;44.954;10.068;2022-10-17T04:17:31;153.45;;;57.00;;
39880;SDS011;25554;44.954;10.068;2022-10-17T04:19:58;157.27;;;60.40;;
39880;SDS011;25554;44.954;10.068;2022-10-17T04:22:25;200.80;;;57.67;;
39880;SDS011;25554;44.954;10.068;2022-10-17T04:24:52;190.05;;;58.75;;
39880;SDS011;25554;44.954;10.068;2022-10-17T04:27:40;266.30;;;62.78;;
39880;SDS011;25554;44.954;10.068;2022-10-17T04:30:07;221.20;;;60.40;;
39880;SDS011;25554;44.954;10.068;2022-10-17T04:32:37;138.70;;;56.53;;
39880;SDS011;25554;44.954;10.068;2022-10-17T04:35:19;162.95;;;62.38;;
39880;SDS011;25554;44.954;10.068;2022-10-17T04:37:51;182.20;;;65.53;;
39880;SDS011;25554;44.954;10.068;2022-10-17T04:40:19;190.25;;;69.35;;
39880;SDS011;25554;44.954;10.068;2022-10-17T04:42:46;246.15;;;73.78;;
39880;SDS011;25554;44.954;10.068;2022-10-17T04:45:17;369.30;;;84.05;;
39880;SDS011;25554;44.954;10.068;2022-10-17T04:47:45;267.60;;;74.53;;
39880;SDS011;25554;44.954;10.068;2022-10-17T04:50:11;179.15;;;71.47;;
39880;SDS011;25554;44.954;10.068;2022-10-17T04:52:39;220.48;;;77.22;;
39880;SDS011;25554;44.954;10.068;2022-10-17T04:55:07;221.55;;;76.43;;
39880;SDS011;25554;44.954;10.068;2022-10-17T04:57:34;292.30;;;79.88;;
39880;SDS011;25554;44.954;10.068;2022-10-17T05:00:18;279.55;;;80.38;;
39880;SDS011;25554;44.954;10.068;2022-10-17T05:02:52;149.93;;;73.95;;
39880;SDS011;25554;44.954;10.068;2022-10-17T05:05:19;206.75;;;81.30;;
39880;SDS011;25554;44.954;10.068;2022-10-17T05:07:49;165.15;;;76.35;;
39880;SDS011;25554;44.954;10.068;2022-10-17T05:10:18;172.45;;;75.88;;
39880;SDS011;25554;44.954;10.068;2022-10-17T05:12:47;155.27;;;74.15;;
39880;SDS011;25554;44.954;10.068;2022-10-17T05:15:16;232.48;;;80.68;;
39880;SDS011;25554;44.954;10.068;2022-10-17T05:22:38;301.27;;;82.13;;
39880;SDS011;25554;44.954;10.068;2022-10-17T05:25:06;184.10;;;80.35;;
39880;SDS011;25554;44.954;10.068;2022-10-17T05:27:32;163.85;;;74.53;;
39880;SDS011;25554;44.954;10.068;2022-10-17T05:30:00;296.33;;;81.40;;
39880;SDS011;25554;44.954;10.068;2022-10-17T05:32:29;185.38;;;77.00;;
39880;SDS011;25554;44.954;10.068;2022-10-17T05:34:56;165.50;;;73.35;;
39880;SDS011;25554;44.954;10.068;2022-10-17T05:37:24;217.50;;;76.57;;
39880;SDS011;25554;44.954;10.068;2022-10-17T05:39:54;174.43;;;77.18;;
39880;SDS011;25554;44.954;10.068;2022-10-17T05:42:20;227.48;;;77.63;;
39880;SDS011;25554;44.954;10.068;2022-10-17T05:44:47;191.65;;;78.45;;
39880;SDS011;25554;44.954;10.068;2022-10-17T05:47:16;323.80;;;83.82;;
39880;SDS011;25554;44.954;10.068;2022-10-17T05:49:43;237.18;;;84.07;;
39880;SDS011;25554;44.954;10.068;2022-10-17T05:52:10;218.65;;;79.60;;
39880;SDS011;25554;44.954;10.068;2022-10-17T05:54:51;137.30;;;72.25;;
39880;SDS011;25554;44.954;10.068;2022-10-17T05:57:18;150.05;;;72.93;;
39880;SDS011;25554;44.954;10.068;2022-10-17T05:59:44;137.65;;;74.63;;
39880;SDS011;25554;44.954;10.068;2022-10-17T06:02:14;132.55;;;70.82;;
39880;SDS011;25554;44.954;10.068;2022-10-17T06:04:42;183.50;;;72.07;;
39880;SDS011;25554;44.954;10.068;2022-10-17T06:07:11;142.30;;;70.13;;
39880;SDS011;25554;44.954;10.068;2022-10-17T06:09:38;198.43;;;73.95;;
39880;SDS011;25554;44.954;10.068;2022-10-17T06:12:05;212.70;;;73.70;;
39880;SDS011;25554;44.954;10.068;2022-10-17T06:14:32;123.72;;;67.22;;
39880;SDS011;25554;44.954;10.068;2022-10-17T06:17:01;129.30;;;69.50;;
39880;SDS011;25554;44.954;10.068;2022-10-17T06:19:28;243.68;;;72.85;;
39880;SDS011;25554;44.954;10.068;2022-10-17T06:21:55;216.80;;;70.00;;
39880;SDS011;25554;44.954;10.068;2022-10-17T06:24:24;118.97;;;65.22;;
39880;SDS011;25554;44.954;10.068;2022-10-17T06:26:52;123.90;;;65.20;;
39880;SDS011;25554;44.954;10.068;2022-10-17T06:29:20;136.88;;;64.68;;
39880;SDS011;25554;44.954;10.068;2022-10-17T06:31:50;105.25;;;61.65;;
39880;SDS011;25554;44.954;10.068;2022-10-17T06:34:17;114.95;;;62.95;;
39880;SDS011;25554;44.954;10.068;2022-10-17T06:36:45;152.05;;;67.45;;
39880;SDS011;25554;44.954;10.068;2022-10-17T06:39:11;164.13;;;67.95;;
39880;SDS011;25554;44.954;10.068;2022-10-17T06:41:47;139.43;;;66.80;;
39880;SDS011;25554;44.954;10.068;2022-10-17T06:44:17;148.45;;;66.47;;
39880;SDS011;25554;44.954;10.068;2022-10-17T06:46:53;139.50;;;62.35;;
39880;SDS011;25554;44.954;10.068;2022-10-17T06:49:21;111.80;;;64.18;;
39880;SDS011;25554;44.954;10.068;2022-10-17T06:51:50;144.05;;;66.45;;
39880;SDS011;25554;44.954;10.068;2022-10-17T06:54:21;171.50;;;70.40;;
39880;SDS011;25554;44.954;10.068;2022-10-17T06:57:06;162.77;;;67.75;;
39880;SDS011;25554;44.954;10.068;2022-10-17T07:00:04;150.20;;;66.63;;
39880;SDS011;25554;44.954;10.068;2022-10-17T07:02:41;112.63;;;62.55;;
39880;SDS011;25554;44.954;10.068;2022-10-17T07:05:08;155.65;;;64.20;;
39880;SDS011;25554;44.954;10.068;2022-10-17T07:07:35;108.55;;;61.70;;
39880;SDS011;25554;44.954;10.068;2022-10-17T07:10:03;99.07;;;58.85;;
39880;SDS011;25554;44.954;10.068;2022-10-17T07:12:34;102.07;;;59.90;;
39880;SDS011;25554;44.954;10.068;2022-10-17T07:15:02;106.35;;;59.42;;
39880;SDS011;25554;44.954;10.068;2022-10-17T07:17:29;97.32;;;56.75;;
39880;SDS011;25554;44.954;10.068;2022-10-17T07:19:56;82.80;;;52.88;;
39880;SDS011;25554;44.954;10.068;2022-10-17T07:22:23;82.90;;;52.08;;
39880;SDS011;25554;44.954;10.068;2022-10-17T07:24:53;76.38;;;50.33;;
39880;SDS011;25554;44.954;10.068;2022-10-17T07:27:26;77.47;;;48.75;;
39880;SDS011;25554;44.954;10.068;2022-10-17T07:32:35;73.25;;;45.40;;
39880;SDS011;25554;44.954;10.068;2022-10-17T07:35:03;80.00;;;50.38;;
39880;SDS011;25554;44.954;10.068;2022-10-17T07:37:30;75.30;;;48.90;;
39880;SDS011;25554;44.954;10.068;2022-10-17T07:39:58;78.93;;;51.25;;
39880;SDS011;25554;44.954;10.068;2022-10-17T07:42:25;76.60;;;46.72;;
39880;SDS011;25554;44.954;10.068;2022-10-17T07:44:53;82.82;;;49.30;;
39880;SDS011;25554;44.954;10.068;2022-10-17T07:47:20;76.25;;;48.30;;
39880;SDS011;25554;44.954;10.068;2022-10-17T07:49:48;76.68;;;49.60;;
39880;SDS011;25554;44.954;10.068;2022-10-17T07:52:15;82.15;;;48.80;;
39880;SDS011;25554;44.954;10.068;2022-10-17T07:54:42;81.43;;;50.60;;
39880;SDS011;25554;44.954;10.068;2022-10-17T07:57:09;79.13;;;49.72;;
39880;SDS011;25554;44.954;10.068;2022-10-17T07:59:36;85.00;;;50.88;;
39880;SDS011;25554;44.954;10.068;2022-10-17T08:02:03;89.57;;;51.20;;
39880;SDS011;25554;44.954;10.068;2022-10-17T08:04:30;77.07;;;49.50;;
39880;SDS011;25554;44.954;10.068;2022-10-17T08:09:22;78.38;;;47.33;;
39880;SDS011;25554;44.954;10.068;2022-10-17T08:14:15;80.50;;;47.33;;
39880;SDS011;25554;44.954;10.068;2022-10-17T08:19:08;97.00;;;49.78;;
39880;SDS011;25554;44.954;10.068;2022-10-17T08:21:36;91.38;;;52.20;;
39880;SDS011;25554;44.954;10.068;2022-10-17T08:24:03;79.97;;;48.53;;
39880;SDS011;25554;44.954;10.068;2022-10-17T08:26:30;103.72;;;54.58;;
39880;SDS011;25554;44.954;10.068;2022-10-17T08:28:57;90.03;;;50.95;;
39880;SDS011;25554;44.954;10.068;2022-10-17T08:31:24;113.43;;;55.22;;
39880;SDS011;25554;44.954;10.068;2022-10-17T08:33:51;96.43;;;52.92;;
39880;SDS011;25554;44.954;10.068;2022-10-17T08:38:44;91.47;;;49.88;;
39880;SDS011;25554;44.954;10.068;2022-10-17T08:46:35;102.65;;;54.42;;
39880;SDS011;25554;44.954;10.068;2022-10-17T08:49:08;108.28;;;55.45;;
39880;SDS011;25554;44.954;10.068;2022-10-17T08:51:39;98.07;;;52.25;;
39880;SDS011;25554;44.954;10.068;2022-10-17T08:54:46;100.70;;;51.88;;
39880;SDS011;25554;44.954;10.068;2022-10-17T08:57:14;95.80;;;52.40;;
39880;SDS011;25554;44.954;10.068;2022-10-17T08:59:42;84.63;;;49.17;;
39880;SDS011;25554;44.954;10.068;2022-10-17T09:10:17;91.70;;;49.33;;
39880;SDS011;25554;44.954;10.068;2022-10-17T09:12:53;96.13;;;51.97;;
39880;SDS011;25554;44.954;10.068;2022-10-17T09:18:19;93.25;;;53.42;;
39880;SDS011;25554;44.954;10.068;2022-10-17T09:21:00;93.10;;;52.53;;
39880;SDS011;25554;44.954;10.068;2022-10-17T09:23:52;88.40;;;50.53;;
39880;SDS011;25554;44.954;10.068;2022-10-17T09:26:22;89.22;;;49.72;;
39880;SDS011;25554;44.954;10.068;2022-10-17T09:28:51;90.65;;;50.97;;
39880;SDS011;25554;44.954;10.068;2022-10-17T09:31:25;104.28;;;58.10;;
39880;SDS011;25554;44.954;10.068;2022-10-17T09:33:56;89.03;;;50.60;;
39880;SDS011;25554;44.954;10.068;2022-10-17T09:36:32;86.70;;;49.65;;
39880;SDS011;25554;44.954;10.068;2022-10-17T09:39:02;88.22;;;49.85;;
39880;SDS011;25554;44.954;10.068;2022-10-17T09:41:42;84.97;;;47.90;;
39880;SDS011;25554;44.954;10.068;2022-10-17T09:50:39;88.35;;;47.88;;
39880;SDS011;25554;44.954;10.068;2022-10-17T09:53:12;89.32;;;49.72;;
39880;SDS011;25554;44.954;10.068;2022-10-17T09:55:44;88.55;;;50.25;;
39880;SDS011;25554;44.954;10.068;2022-10-17T09:58:13;90.57;;;49.65;;
39880;SDS011;25554;44.954;10.068;2022-10-17T10:00:41;89.30;;;50.33;;
39880;SDS011;25554;44.954;10.068;2022-10-17T10:03:19;85.80;;;48.63;;
39880;SDS011;25554;44.954;10.068;2022-10-17T10:06:01;87.50;;;50.80;;
39880;SDS011;25554;44.954;10.068;2022-10-17T10:08:58;87.18;;;47.10;;
39880;SDS011;25554;44.954;10.068;2022-10-17T10:11:24;74.18;;;45.45;;
39880;SDS011;25554;44.954;10.068;2022-10-17T10:14:14;76.38;;;45.55;;
39880;SDS011;25554;44.954;10.068;2022-10-17T10:16:53;82.47;;;47.78;;
39880;SDS011;25554;44.954;10.068;2022-10-17T10:19:33;81.22;;;47.97;;
39880;SDS011;25554;44.954;10.068;2022-10-17T10:22:02;78.47;;;46.28;;
39880;SDS011;25554;44.954;10.068;2022-10-17T10:24:31;75.85;;;43.78;;
39880;SDS011;25554;44.954;10.068;2022-10-17T10:26:58;80.55;;;47.47;;
39880;SDS011;25554;44.954;10.068;2022-10-17T10:29:38;73.95;;;44.67;;
39880;SDS011;25554;44.954;10.068;2022-10-17T10:32:26;80.10;;;46.90;;
39880;SDS011;25554;44.954;10.068;2022-10-17T10:35:07;83.95;;;46.55;;
39880;SDS011;25554;44.954;10.068;2022-10-17T10:37:47;79.35;;;45.80;;
39880;SDS011;25554;44.954;10.068;2022-10-17T10:40:22;80.22;;;44.92;;
39880;SDS011;25554;44.954;10.068;2022-10-17T10:43:19;78.95;;;44.92;;
39880;SDS011;25554;44.954;10.068;2022-10-17T10:45:46;76.18;;;43.25;;
39880;SDS011;25554;44.954;10.068;2022-10-17T10:50:53;78.22;;;44.72;;
39880;SDS011;25554;44.954;10.068;2022-10-17T10:53:31;79.07;;;44.33;;
39880;SDS011;25554;44.954;10.068;2022-10-17T10:56:01;80.05;;;44.55;;
39880;SDS011;25554;44.954;10.068;2022-10-17T11:06:36;74.78;;;42.83;;
39880;SDS011;25554;44.954;10.068;2022-10-17T11:11:44;76.55;;;43.72;;
39880;SDS011;25554;44.954;10.068;2022-10-17T11:17:40;76.05;;;45.83;;
39880;SDS011;25554;44.954;10.068;2022-10-17T11:25:44;66.28;;;40.72;;
39880;SDS011;25554;44.954;10.068;2022-10-17T11:28:15;68.45;;;41.63;;
39880;SDS011;25554;44.954;10.068;2022-10-17T11:30:45;72.65;;;41.53;;
39880;SDS011;25554;44.954;10.068;2022-10-17T11:33:34;68.53;;;40.95;;
39880;SDS011;25554;44.954;10.068;2022-10-17T11:36:11;66.40;;;40.47;;
39880;SDS011;25554;44.954;10.068;2022-10-17T11:38:47;66.07;;;41.42;;
39880;SDS011;25554;44.954;10.068;2022-10-17T11:41:36;70.43;;;43.67;;
39880;SDS011;25554;44.954;10.068;2022-10-17T11:46:54;78.30;;;43.03;;
39880;SDS011;25554;44.954;10.068;2022-10-17T11:49:29;70.18;;;40.67;;
39880;SDS011;25554;44.954;10.068;2022-10-17T11:54:44;68.10;;;40.70;;
39880;SDS011;25554;44.954;10.068;2022-10-17T11:57:25;78.57;;;40.53;;
39880;SDS011;25554;44.954;10.068;2022-10-17T12:03:18;74.47;;;40.65;;
39880;SDS011;25554;44.954;10.068;2022-10-17T12:16:58;64.13;;;37.25;;
39880;SDS011;25554;44.954;10.068;2022-10-17T12:19:35;60.67;;;35.17;;
39880;SDS011;25554;44.954;10.068;2022-10-17T12:22:16;55.65;;;33.10;;
39880;SDS011;25554;44.954;10.068;2022-10-17T12:24:53;51.20;;;29.75;;
39880;SDS011;25554;44.954;10.068;2022-10-17T12:27:32;42.35;;;27.55;;
39880;SDS011;25554;44.954;10.068;2022-10-17T12:32:37;50.85;;;29.80;;
39880;SDS011;25554;44.954;10.068;2022-10-17T12:35:33;43.85;;;27.40;;
39880;SDS011;25554;44.954;10.068;2022-10-17T12:56:02;46.30;;;29.42;;
39880;SDS011;25554;44.954;10.068;2022-10-17T12:58:29;45.47;;;26.42;;
39880;SDS011;25554;44.954;10.068;2022-10-17T13:03:24;43.65;;;27.45;;
39880;SDS011;25554;44.954;10.068;2022-10-17T13:05:57;43.42;;;27.05;;
39880;SDS011;25554;44.954;10.068;2022-10-17T13:08:33;43.78;;;29.40;;
39880;SDS011;25554;44.954;10.068;2022-10-17T13:11:07;42.25;;;28.33;;
39880;SDS011;25554;44.954;10.068;2022-10-17T13:13:36;48.10;;;28.45;;
39880;SDS011;25554;44.954;10.068;2022-10-17T13:16:07;40.35;;;27.20;;
39880;SDS011;25554;44.954;10.068;2022-10-17T13:18:34;45.28;;;27.98;;
39880;SDS011;25554;44.954;10.068;2022-10-17T13:21:05;44.92;;;27.70;;
39880;SDS011;25554;44.954;10.068;2022-10-17T13:23:39;35.65;;;22.27;;
39880;SDS011;25554;44.954;10.068;2022-10-17T13:28:40;47.22;;;27.77;;
39880;SDS011;25554;44.954;10.068;2022-10-17T13:31:27;40.88;;;27.88;;
39880;SDS011;25554;44.954;10.068;2022-10-17T13:34:03;42.42;;;25.95;;
39880;SDS011;25554;44.954;10.068;2022-10-17T13:36:31;42.65;;;27.85;;
39880;SDS011;25554;44.954;10.068;2022-10-17T13:38:59;37.53;;;24.25;;
39880;SDS011;25554;44.954;10.068;2022-10-17T13:41:31;34.47;;;23.33;;
39880;SDS011;25554;44.954;10.068;2022-10-17T13:43:59;48.22;;;26.05;;
39880;SDS011;25554;44.954;10.068;2022-10-17T13:46:29;40.25;;;25.55;;
39880;SDS011;25554;44.954;10.068;2022-10-17T13:48:57;33.35;;;24.65;;
39880;SDS011;25554;44.954;10.068;2022-10-17T13:51:33;37.83;;;24.98;;
39880;SDS011;25554;44.954;10.068;2022-10-17T13:53:59;39.72;;;24.73;;
39880;SDS011;25554;44.954;10.068;2022-10-17T13:56:26;37.47;;;24.80;;
39880;SDS011;25554;44.954;10.068;2022-10-17T13:58:54;35.75;;;23.52;;
39880;SDS011;25554;44.954;10.068;2022-10-17T14:01:24;35.00;;;23.05;;
39880;SDS011;25554;44.954;10.068;2022-10-17T14:03:52;38.10;;;25.00;;
39880;SDS011;25554;44.954;10.068;2022-10-17T14:06:25;32.53;;;22.40;;
39880;SDS011;25554;44.954;10.068;2022-10-17T14:08:57;33.92;;;22.15;;
39880;SDS011;25554;44.954;10.068;2022-10-17T14:11:29;34.85;;;22.88;;
39880;SDS011;25554;44.954;10.068;2022-10-17T14:14:13;32.47;;;22.17;;
39880;SDS011;25554;44.954;10.068;2022-10-17T14:16:43;34.45;;;23.88;;
39880;SDS011;25554;44.954;10.068;2022-10-17T14:19:26;37.70;;;24.95;;
39880;SDS011;25554;44.954;10.068;2022-10-17T14:22:13;36.53;;;24.52;;
39880;SDS011;25554;44.954;10.068;2022-10-17T14:24:40;35.15;;;22.13;;
39880;SDS011;25554;44.954;10.068;2022-10-17T14:29:50;32.75;;;22.55;;
39880;SDS011;25554;44.954;10.068;2022-10-17T14:32:18;31.85;;;23.75;;
39880;SDS011;25554;44.954;10.068;2022-10-17T14:34:45;41.40;;;25.77;;
39880;SDS011;25554;44.954;10.068;2022-10-17T14:40:01;30.05;;;21.40;;
39880;SDS011;25554;44.954;10.068;2022-10-17T14:42:29;32.03;;;23.00;;
39880;SDS011;25554;44.954;10.068;2022-10-17T14:45:02;36.53;;;23.50;;
39880;SDS011;25554;44.954;10.068;2022-10-17T14:47:34;33.97;;;22.75;;
39880;SDS011;25554;44.954;10.068;2022-10-17T14:50:02;37.20;;;25.60;;
39880;SDS011;25554;44.954;10.068;2022-10-17T14:52:57;38.85;;;26.25;;
39880;SDS011;25554;44.954;10.068;2022-10-17T14:55:54;39.65;;;26.73;;
39880;SDS011;25554;44.954;10.068;2022-10-17T14:58:26;36.97;;;24.63;;
39880;SDS011;25554;44.954;10.068;2022-10-17T15:00:54;33.92;;;23.73;;
39880;SDS011;25554;44.954;10.068;2022-10-17T15:03:22;39.70;;;26.10;;
39880;SDS011;25554;44.954;10.068;2022-10-17T15:05:49;39.25;;;25.85;;
39880;SDS011;25554;44.954;10.068;2022-10-17T15:08:16;38.38;;;25.45;;
39880;SDS011;25554;44.954;10.068;2022-10-17T15:10:45;37.22;;;25.35;;
39880;SDS011;25554;44.954;10.068;2022-10-17T15:13:12;39.08;;;26.23;;
39880;SDS011;25554;44.954;10.068;2022-10-17T15:15:39;39.55;;;24.50;;
39880;SDS011;25554;44.954;10.068;2022-10-17T15:18:08;33.47;;;22.42;;
39880;SDS011;25554;44.954;10.068;2022-10-17T15:20:36;35.40;;;23.48;;
39880;SDS011;25554;44.954;10.068;2022-10-17T15:23:03;35.08;;;24.67;;
39880;SDS011;25554;44.954;10.068;2022-10-17T15:25:30;42.83;;;25.90;;
39880;SDS011;25554;44.954;10.068;2022-10-17T15:27:57;37.58;;;24.73;;
39880;SDS011;25554;44.954;10.068;2022-10-17T15:30:25;39.90;;;27.27;;
39880;SDS011;25554;44.954;10.068;2022-10-17T15:32:51;31.48;;;22.55;;
39880;SDS011;25554;44.954;10.068;2022-10-17T15:35:18;33.53;;;20.40;;
39880;SDS011;25554;44.954;10.068;2022-10-17T15:37:46;35.08;;;23.98;;
39880;SDS011;25554;44.954;10.068;2022-10-17T15:40:14;30.55;;;21.65;;
39880;SDS011;25554;44.954;10.068;2022-10-17T15:42:46;35.88;;;23.25;;
39880;SDS011;25554;44.954;10.068;2022-10-17T15:45:14;32.38;;;21.83;;
39880;SDS011;25554;44.954;10.068;2022-10-17T15:47:43;31.15;;;21.83;;
39880;SDS011;25554;44.954;10.068;2022-10-17T15:50:15;28.13;;;19.77;;
39880;SDS011;25554;44.954;10.068;2022-10-17T15:52:42;32.13;;;21.13;;
39880;SDS011;25554;44.954;10.068;2022-10-17T15:55:11;36.60;;;23.38;;
39880;SDS011;25554;44.954;10.068;2022-10-17T15:57:39;31.85;;;20.92;;
39880;SDS011;25554;44.954;10.068;2022-10-17T16:00:15;28.75;;;20.55;;
39880;SDS011;25554;44.954;10.068;2022-10-17T16:02:47;28.08;;;19.40;;
39880;SDS011;25554;44.954;10.068;2022-10-17T16:07:42;27.67;;;18.85;;
39880;SDS011;25554;44.954;10.068;2022-10-17T16:10:11;32.80;;;21.98;;
39880;SDS011;25554;44.954;10.068;2022-10-17T16:12:38;46.80;;;28.83;;
39880;SDS011;25554;44.954;10.068;2022-10-17T16:15:15;38.67;;;23.38;;
39880;SDS011;25554;44.954;10.068;2022-10-17T16:17:50;34.42;;;23.77;;
39880;SDS011;25554;44.954;10.068;2022-10-17T16:20:18;35.28;;;25.25;;
39880;SDS011;25554;44.954;10.068;2022-10-17T16:22:44;39.03;;;24.58;;
39880;SDS011;25554;44.954;10.068;2022-10-17T16:25:16;36.60;;;23.85;;
39880;SDS011;25554;44.954;10.068;2022-10-17T16:27:48;39.17;;;23.77;;
39880;SDS011;25554;44.954;10.068;2022-10-17T16:30:16;37.92;;;22.10;;
39880;SDS011;25554;44.954;10.068;2022-10-17T16:32:44;30.55;;;20.45;;
39880;SDS011;25554;44.954;10.068;2022-10-17T16:35:13;34.75;;;22.30;;
39880;SDS011;25554;44.954;10.068;2022-10-17T16:37:46;30.38;;;20.25;;
39880;SDS011;25554;44.954;10.068;2022-10-17T16:40:13;26.45;;;18.23;;
39880;SDS011;25554;44.954;10.068;2022-10-17T16:42:40;29.95;;;19.77;;
39880;SDS011;25554;44.954;10.068;2022-10-17T16:45:07;28.58;;;19.73;;
39880;SDS011;25554;44.954;10.068;2022-10-17T16:47:33;42.58;;;23.17;;
39880;SDS011;25554;44.954;10.068;2022-10-17T16:52:26;32.30;;;22.10;;
39880;SDS011;25554;44.954;10.068;2022-10-17T16:54:53;34.22;;;22.23;;
39880;SDS011;25554;44.954;10.068;2022-10-17T16:59:45;43.72;;;24.98;;
39880;SDS011;25554;44.954;10.068;2022-10-17T17:02:12;36.25;;;24.27;;
39880;SDS011;25554;44.954;10.068;2022-10-17T17:07:05;35.70;;;25.23;;
39880;SDS011;25554;44.954;10.068;2022-10-17T17:11:57;40.65;;;25.48;;
39880;SDS011;25554;44.954;10.068;2022-10-17T17:16:50;39.05;;;23.33;;
39880;SDS011;25554;44.954;10.068;2022-10-17T17:21:42;52.75;;;29.33;;
39880;SDS011;25554;44.954;10.068;2022-10-17T17:24:14;51.58;;;29.95;;
39880;SDS011;25554;44.954;10.068;2022-10-17T17:26:42;40.08;;;28.05;;
39880;SDS011;25554;44.954;10.068;2022-10-17T17:29:09;43.45;;;27.30;;
39880;SDS011;25554;44.954;10.068;2022-10-17T17:31:38;44.38;;;27.05;;
39880;SDS011;25554;44.954;10.068;2022-10-17T17:36:32;43.60;;;28.10;;
39880;SDS011;25554;44.954;10.068;2022-10-17T17:39:00;48.50;;;28.92;;
39880;SDS011;25554;44.954;10.068;2022-10-17T17:41:28;45.45;;;28.08;;
39880;SDS011;25554;44.954;10.068;2022-10-17T17:43:55;41.35;;;27.30;;